createdAt,value
2023-01-23T00:00:38.626Z,2.48
2023-01-23T00:03:19.805Z,2.43
2023-01-23T00:05:58.017Z,2.46
2023-01-23T00:08:29.249Z,2.47
2023-01-23T00:10:58.483Z,2.53
2023-01-23T00:13:27.734Z,2.53
2023-01-23T00:15:56.560Z,2.57
2023-01-23T00:18:25.791Z,2.53
2023-01-23T00:20:54.578Z,2.50
2023-01-23T00:23:23.616Z,2.51
2023-01-23T00:25:53.766Z,2.50
2023-01-23T00:28:22.929Z,2.50
2023-01-23T00:30:51.713Z,2.46
2023-01-23T00:33:20.863Z,2.49
2023-01-23T00:35:49.752Z,2.48
2023-01-23T00:38:18.968Z,2.49
2023-01-23T00:40:48.344Z,2.49
2023-01-23T00:43:18.789Z,2.46
2023-01-23T00:45:47.577Z,2.47
2023-01-23T00:48:17.040Z,2.45
2023-01-23T00:50:46.915Z,2.26
2023-01-23T00:53:16.528Z,2.32
2023-01-23T00:55:45.589Z,2.40
2023-01-23T00:58:15.002Z,2.36
2023-01-23T01:00:45.182Z,2.33
2023-01-23T01:03:14.612Z,2.31
2023-01-23T01:05:44.373Z,2.46
2023-01-23T01:08:13.921Z,2.43
2023-01-23T01:10:43.266Z,2.20
2023-01-23T01:13:12.901Z,2.31
2023-01-23T01:15:41.798Z,2.37
2023-01-23T01:18:12.964Z,2.41
2023-01-23T01:20:42.734Z,2.45
2023-01-23T01:23:12.855Z,2.42
2023-01-23T01:25:42.162Z,2.41
2023-01-23T01:28:11.300Z,2.51
2023-01-23T01:30:41.298Z,2.53
2023-01-23T01:33:12.339Z,2.57
2023-01-23T01:35:42.311Z,2.69
2023-01-23T01:38:11.602Z,2.52
2023-01-23T01:40:40.379Z,2.46
2023-01-23T01:43:19.548Z,2.51
2023-01-23T01:46:20.676Z,2.50
2023-01-23T01:49:04.692Z,2.54
2023-01-23T01:51:39.307Z,2.60
2023-01-23T01:54:19.350Z,2.58
2023-01-23T01:56:54.400Z,2.59
2023-01-23T01:59:27.258Z,2.53
2023-01-23T02:02:05.406Z,2.54
2023-01-23T02:04:42.380Z,2.44
2023-01-23T02:07:20.484Z,2.49
2023-01-23T02:09:51.157Z,2.56
2023-01-23T02:12:20.257Z,2.52
2023-01-23T02:14:49.372Z,2.58
2023-01-23T02:17:18.178Z,2.60
2023-01-23T02:20:04.608Z,2.56
2023-01-23T02:22:45.695Z,2.64
2023-01-23T02:25:24.763Z,2.62
2023-01-23T02:27:55.062Z,2.62
2023-01-23T02:30:24.973Z,2.65
2023-01-23T02:32:56.187Z,2.60
2023-01-23T02:35:31.797Z,2.54
2023-01-23T02:38:09.074Z,2.56
2023-01-23T02:40:41.260Z,2.62
2023-01-23T02:43:19.232Z,2.57
2023-01-23T02:45:56.113Z,2.61
2023-01-23T02:48:26.021Z,2.63
2023-01-23T02:50:55.109Z,2.64
2023-01-23T02:53:25.760Z,2.61
2023-01-23T02:55:56.570Z,2.55
2023-01-23T02:58:44.097Z,2.66
2023-01-23T03:01:13.522Z,2.68
2023-01-23T03:03:43.374Z,2.64
2023-01-23T03:06:12.885Z,2.67
2023-01-23T03:08:47.649Z,2.66
2023-01-23T03:11:19.852Z,2.61
2023-01-23T03:13:50.024Z,2.69
2023-01-23T03:16:19.554Z,2.69
2023-01-23T03:18:54.820Z,2.70
2023-01-23T03:21:25.059Z,2.66
2023-01-23T03:23:54.107Z,2.66
2023-01-23T03:26:23.667Z,2.71
2023-01-23T03:29:11.307Z,2.59
2023-01-23T03:31:41.610Z,2.58
2023-01-23T03:34:10.670Z,2.52
2023-01-23T03:36:41.198Z,2.53
2023-01-23T03:39:28.013Z,2.56
2023-01-23T03:41:57.628Z,2.58
2023-01-23T03:44:31.892Z,2.58
2023-01-23T03:47:01.303Z,2.62
2023-01-23T03:49:31.080Z,2.62
2023-01-23T03:52:01.536Z,2.60
2023-01-23T03:54:31.992Z,2.62
2023-01-23T03:57:02.309Z,2.62
2023-01-23T04:00:05.213Z,2.59
2023-01-23T04:02:45.553Z,2.51
2023-01-23T04:05:16.595Z,2.39
2023-01-23T04:07:45.735Z,2.42
2023-01-23T04:10:15.860Z,2.44
2023-01-23T04:12:50.023Z,2.46
2023-01-23T04:15:21.491Z,2.27
2023-01-23T04:17:52.323Z,2.33
2023-01-23T04:20:22.299Z,2.26
2023-01-23T04:22:53.273Z,2.22
2023-01-23T04:25:23.640Z,2.10
2023-01-23T04:27:52.729Z,2.24
2023-01-23T04:30:23.904Z,2.16
2023-01-23T04:32:53.675Z,2.21
2023-01-23T04:35:22.646Z,2.18
2023-01-23T04:37:53.360Z,2.21
2023-01-23T04:40:23.185Z,2.21
2023-01-23T04:42:59.147Z,2.23
2023-01-23T04:45:52.064Z,2.30
2023-01-23T04:48:51.412Z,2.36
2023-01-23T04:51:20.324Z,2.41
2023-01-23T04:53:49.460Z,2.43
2023-01-23T04:56:19.064Z,2.39
2023-01-23T04:58:49.899Z,2.37
2023-01-23T05:01:23.433Z,2.32
2023-01-23T05:03:58.000Z,2.34
2023-01-23T05:06:26.849Z,2.23
2023-01-23T05:08:58.362Z,2.25
2023-01-23T05:11:34.068Z,2.17
2023-01-23T05:14:03.989Z,2.22
2023-01-23T05:16:37.318Z,2.18
2023-01-23T05:19:35.251Z,2.19
2023-01-23T05:22:06.491Z,2.20
2023-01-23T05:24:36.019Z,2.23
2023-01-23T05:27:05.881Z,2.21
2023-01-23T05:29:39.409Z,2.32
2023-01-23T05:32:14.885Z,2.17
2023-01-23T05:34:46.542Z,2.30
2023-01-23T05:37:25.508Z,2.25
2023-01-23T05:39:58.529Z,2.27
2023-01-23T05:42:30.687Z,2.29
2023-01-23T05:45:38.048Z,2.16
2023-01-23T05:48:15.153Z,2.30
2023-01-23T05:50:44.395Z,2.33
2023-01-23T05:53:13.427Z,2.29
2023-01-23T05:55:44.008Z,2.18
2023-01-23T05:58:16.027Z,2.12
2023-01-23T06:01:17.768Z,2.12
2023-01-23T06:04:13.105Z,2.23
2023-01-23T06:06:55.823Z,2.16
2023-01-23T06:09:25.766Z,2.22
2023-01-23T06:11:54.884Z,2.27
2023-01-23T06:14:23.849Z,2.26
2023-01-23T06:16:52.980Z,2.32
2023-01-23T06:19:24.601Z,2.35
2023-01-23T06:21:53.882Z,2.36
2023-01-23T06:24:22.935Z,2.37
2023-01-23T06:26:52.898Z,2.40
2023-01-23T06:29:21.808Z,2.36
2023-01-23T06:31:51.171Z,2.40
2023-01-23T06:34:20.198Z,2.43
2023-01-23T06:36:59.379Z,2.33
2023-01-23T06:39:30.224Z,2.43
2023-01-23T06:41:59.657Z,2.33
2023-01-23T06:44:28.729Z,2.45
2023-01-23T06:46:57.976Z,2.48
2023-01-23T06:49:27.469Z,2.50
2023-01-23T06:51:57.910Z,2.51
2023-01-23T06:54:28.214Z,2.47
2023-01-23T06:57:02.506Z,2.50
2023-01-23T06:59:32.430Z,2.58
2023-01-23T07:02:03.358Z,2.57
2023-01-23T07:04:41.414Z,2.60
2023-01-23T07:07:12.028Z,2.59
2023-01-23T07:09:42.738Z,2.58
2023-01-23T07:12:25.227Z,2.53
2023-01-23T07:14:54.294Z,2.55
2023-01-23T07:17:36.978Z,2.60
2023-01-23T07:20:07.147Z,2.48
2023-01-23T07:22:43.853Z,2.50
2023-01-23T07:25:12.731Z,2.55
2023-01-23T07:27:41.989Z,2.63
2023-01-23T07:30:13.095Z,2.57
2023-01-23T07:32:42.265Z,2.66
2023-01-23T07:35:11.655Z,2.64
2023-01-23T07:37:40.755Z,2.61
2023-01-23T07:40:13.097Z,2.62
2023-01-23T07:42:42.524Z,2.65
2023-01-23T07:45:12.827Z,2.57
2023-01-23T07:47:44.715Z,2.45
2023-01-23T07:50:16.355Z,2.49
2023-01-23T07:52:45.478Z,2.41
2023-01-23T07:55:16.107Z,2.42
2023-01-23T07:57:45.326Z,2.46
2023-01-23T08:00:14.895Z,2.43
2023-01-23T08:02:44.151Z,2.40
2023-01-23T08:05:31.095Z,2.51
2023-01-23T08:08:12.664Z,2.39
2023-01-23T08:10:43.836Z,2.50
2023-01-23T08:13:13.007Z,2.32
2023-01-23T08:15:42.048Z,2.41
2023-01-23T08:18:11.168Z,2.41
2023-01-23T08:20:40.013Z,2.46
2023-01-23T08:23:09.153Z,2.52
2023-01-23T08:25:39.929Z,2.66
2023-01-23T08:28:10.390Z,2.65
2023-01-23T08:30:39.514Z,2.69
2023-01-23T08:33:08.631Z,2.78
2023-01-23T08:35:37.783Z,2.84
2023-01-23T08:38:09.232Z,2.88
2023-01-23T08:40:38.268Z,2.79
2023-01-23T08:43:10.595Z,2.78
2023-01-23T08:45:39.452Z,2.82
2023-01-23T08:48:09.478Z,2.75
2023-01-23T08:50:38.285Z,2.87
2023-01-23T08:53:08.135Z,2.75
2023-01-23T08:55:39.029Z,2.83
2023-01-23T08:58:13.076Z,2.69
2023-01-23T09:00:42.956Z,2.67
2023-01-23T09:03:12.105Z,2.72
2023-01-23T09:05:40.877Z,2.78
2023-01-23T09:08:09.950Z,2.78
2023-01-23T09:10:38.802Z,2.76
2023-01-23T09:13:09.356Z,2.76
2023-01-23T09:15:40.227Z,2.62
2023-01-23T09:18:09.433Z,2.74
2023-01-23T09:20:39.998Z,2.85
2023-01-23T09:23:09.206Z,2.77
2023-01-23T09:25:39.659Z,2.85
2023-01-23T09:28:10.251Z,3.01
2023-01-23T09:30:39.163Z,3.09
2023-01-23T09:33:09.144Z,2.96
2023-01-23T09:35:37.987Z,2.98
2023-01-23T09:38:07.747Z,2.93
2023-01-23T09:40:46.947Z,2.90
2023-01-23T09:43:25.454Z,3.00
2023-01-23T09:46:06.987Z,2.97
2023-01-23T09:48:45.325Z,2.94
2023-01-23T09:51:24.656Z,2.94
2023-01-23T09:54:03.189Z,3.02
2023-01-23T09:56:39.404Z,3.04
2023-01-23T09:59:18.781Z,3.02
2023-01-23T10:01:47.643Z,3.02
2023-01-23T10:04:20.478Z,3.10
2023-01-23T10:07:19.490Z,3.12
2023-01-23T10:10:23.021Z,3.23
2023-01-23T10:13:07.989Z,3.11
2023-01-23T10:16:20.000Z,3.08
2023-01-23T10:19:00.134Z,3.03
2023-01-23T10:21:39.856Z,2.88
2023-01-23T10:24:40.410Z,2.97
2023-01-23T10:27:21.746Z,3.13
2023-01-23T10:29:57.846Z,3.28
2023-01-23T10:32:31.497Z,3.23
2023-01-23T10:35:06.669Z,3.21
2023-01-23T10:37:47.662Z,3.27
2023-01-23T10:40:39.572Z,3.13
2023-01-23T10:43:15.186Z,3.18
2023-01-23T10:45:46.294Z,3.22
2023-01-23T10:48:42.539Z,3.15
2023-01-23T10:51:28.816Z,3.09
2023-01-23T10:54:29.652Z,3.21
2023-01-23T10:57:02.934Z,3.33
2023-01-23T10:59:41.351Z,3.41
2023-01-23T11:02:27.528Z,3.29
2023-01-23T11:04:58.905Z,3.09
2023-01-23T11:07:31.154Z,2.97
2023-01-23T11:10:14.456Z,3.03
2023-01-23T11:12:50.356Z,3.02
2023-01-23T11:15:26.046Z,2.97
2023-01-23T11:17:57.927Z,3.03
2023-01-23T11:20:31.953Z,2.99
2023-01-23T11:23:15.803Z,3.14
2023-01-23T11:25:47.591Z,2.87
2023-01-23T11:28:27.076Z,2.85
2023-01-23T11:31:14.595Z,2.95
2023-01-23T11:33:55.838Z,2.94
2023-01-23T11:36:46.377Z,2.85
2023-01-23T11:39:32.356Z,2.89
2023-01-23T11:42:02.697Z,2.92
2023-01-23T11:44:41.489Z,3.06
2023-01-23T11:47:49.266Z,2.90
2023-01-23T11:50:41.098Z,2.99
2023-01-23T11:53:42.391Z,3.29
2023-01-23T11:56:50.435Z,3.17
2023-01-23T11:59:46.794Z,3.05
2023-01-23T12:02:49.015Z,3.02
2023-01-23T12:06:03.037Z,3.19
2023-01-23T12:08:51.744Z,3.24
2023-01-23T12:11:25.661Z,3.36
2023-01-23T12:14:17.248Z,3.40
2023-01-23T12:17:08.880Z,3.36
2023-01-23T12:20:19.098Z,3.33
2023-01-23T12:23:04.677Z,3.33
2023-01-23T12:25:37.928Z,3.32
2023-01-23T12:28:28.415Z,3.20
2023-01-23T12:31:27.564Z,3.17
2023-01-23T12:34:29.556Z,3.13
2023-01-23T12:37:30.476Z,3.10
2023-01-23T12:40:12.179Z,3.11
2023-01-23T12:42:54.935Z,3.05
2023-01-23T12:45:27.329Z,3.00
2023-01-23T12:48:07.671Z,3.10
2023-01-23T12:50:46.136Z,3.21
2023-01-23T12:53:19.116Z,3.15
2023-01-23T12:56:02.717Z,3.11
2023-01-23T12:58:42.006Z,3.04
2023-01-23T13:01:33.680Z,2.99
2023-01-23T13:04:29.900Z,2.87
2023-01-23T13:07:15.990Z,3.05
2023-01-23T13:10:07.412Z,2.83
2023-01-23T13:12:37.074Z,2.96
2023-01-23T13:15:40.724Z,3.07
2023-01-23T13:18:28.222Z,3.03
2023-01-23T13:21:18.215Z,2.90
2023-01-23T13:23:47.531Z,2.84
2023-01-23T13:26:30.058Z,3.00
2023-01-23T13:29:03.834Z,3.07
2023-01-23T13:31:46.511Z,3.02
2023-01-23T13:34:39.646Z,2.91
2023-01-23T13:37:55.783Z,3.09
2023-01-23T13:40:26.010Z,3.19
2023-01-23T13:42:55.098Z,3.00
2023-01-23T13:45:30.936Z,2.90
2023-01-23T14:22:33.704Z,3.08
2023-01-23T14:25:03.500Z,3.13
2023-01-23T14:27:52.241Z,3.08
2023-01-23T14:30:28.319Z,3.14
2023-01-23T14:32:58.947Z,3.13
2023-01-23T14:35:32.672Z,3.16
2023-01-23T14:38:07.057Z,3.17
2023-01-23T14:40:49.290Z,3.02
2023-01-23T14:43:23.463Z,3.09
2023-01-23T14:46:01.985Z,3.22
2023-01-23T14:48:36.416Z,3.12
2023-01-23T14:51:21.183Z,3.06
2023-01-23T15:00:37.906Z,2.86
2023-01-23T15:03:08.513Z,2.89
2023-01-23T15:05:39.779Z,2.93
2023-01-23T15:08:26.879Z,3.02
2023-01-23T15:11:00.620Z,3.08
2023-01-23T15:13:38.248Z,3.05
2023-01-23T15:16:16.952Z,2.84
2023-01-23T15:18:58.546Z,3.03
2023-01-23T15:21:33.503Z,2.97
2023-01-23T15:24:26.576Z,2.94
2023-01-23T15:27:07.726Z,2.99
2023-01-23T15:29:36.992Z,3.00
2023-01-23T15:32:21.434Z,2.97
2023-01-23T15:34:57.826Z,2.99
2023-01-23T15:37:29.363Z,2.92
2023-01-23T15:40:04.384Z,3.08
2023-01-23T15:42:36.012Z,3.04
2023-01-23T15:45:15.177Z,3.10
2023-01-23T15:47:44.431Z,3.13
2023-01-23T15:50:14.790Z,2.98
2023-01-23T15:52:49.970Z,3.08
2023-01-23T15:55:22.275Z,3.08
2023-01-23T15:57:53.436Z,3.12
2023-01-23T16:00:25.949Z,3.13
2023-01-23T16:02:57.976Z,3.13
2023-01-23T16:05:31.180Z,3.03
2023-01-23T16:08:02.712Z,2.98
2023-01-23T16:10:37.535Z,3.09
2023-01-23T16:13:07.911Z,3.08
2023-01-23T16:15:39.641Z,3.09
2023-01-23T16:18:09.033Z,3.10
2023-01-23T16:20:42.132Z,3.07
2023-01-23T16:23:19.771Z,3.16
2023-01-23T16:25:50.887Z,3.14
2023-01-23T16:28:23.999Z,3.16
2023-01-23T16:30:53.522Z,3.18
2023-01-23T16:33:23.556Z,3.20
2023-01-23T16:35:53.417Z,3.21
2023-01-23T16:38:27.051Z,3.16
2023-01-23T16:40:59.940Z,3.23
2023-01-23T16:43:29.593Z,3.22
2023-01-23T16:45:58.602Z,3.23
2023-01-23T16:48:28.844Z,3.24
2023-01-23T16:51:04.987Z,3.33
2023-01-23T16:53:39.159Z,3.36
2023-01-23T16:56:20.426Z,3.23
2023-01-23T16:58:51.399Z,3.24
2023-01-23T17:01:23.987Z,3.25
2023-01-23T17:04:00.461Z,3.32
2023-01-23T17:06:29.733Z,3.36
2023-01-23T17:08:59.011Z,3.36
2023-01-23T17:11:35.534Z,3.37
2023-01-23T17:14:11.132Z,3.40
2023-01-23T17:16:40.738Z,3.36
2023-01-23T17:19:21.959Z,3.32
2023-01-23T17:21:51.940Z,3.31
2023-01-23T17:24:21.348Z,3.33
2023-01-23T17:26:51.917Z,3.37
2023-01-23T17:29:21.549Z,3.29
2023-01-23T17:31:50.852Z,3.30
2023-01-23T17:34:24.504Z,3.16
2023-01-23T17:36:55.519Z,3.25
2023-01-23T17:39:25.618Z,3.29
2023-01-23T17:41:55.976Z,3.27
2023-01-23T17:44:25.339Z,3.28
2023-01-23T17:46:55.171Z,3.33
2023-01-23T17:49:31.624Z,3.31
2023-01-23T17:52:03.358Z,3.30
2023-01-23T17:54:33.148Z,3.32
2023-01-23T17:57:03.582Z,3.29
2023-01-23T17:59:32.823Z,3.33
2023-01-23T18:02:01.883Z,3.45
2023-01-23T18:04:31.402Z,3.42
2023-01-23T18:07:00.345Z,3.39
2023-01-23T18:09:29.627Z,3.31
2023-01-23T18:11:59.145Z,3.33
2023-01-23T18:14:47.978Z,3.35
2023-01-23T18:17:31.008Z,3.39
2023-01-23T18:20:01.043Z,3.41
2023-01-23T18:22:30.867Z,3.41
2023-01-23T18:25:01.229Z,3.42
2023-01-23T18:27:37.514Z,3.36
2023-01-23T18:30:29.584Z,3.39
2023-01-23T18:33:27.583Z,3.42
2023-01-23T18:36:20.078Z,3.41
2023-01-23T18:39:21.871Z,3.36
2023-01-23T18:42:14.085Z,3.39
2023-01-23T18:44:52.455Z,3.39
2023-01-23T18:47:25.526Z,3.38
2023-01-23T18:49:55.293Z,3.36
2023-01-23T18:52:38.850Z,3.40
2023-01-23T18:55:22.430Z,3.48
2023-01-23T18:58:16.135Z,3.41
2023-01-23T19:00:58.465Z,3.39
2023-01-23T19:03:41.103Z,3.40
2023-01-23T19:06:22.297Z,3.39
2023-01-23T19:08:53.644Z,3.38
2023-01-23T19:11:37.679Z,3.40
2023-01-23T19:14:25.002Z,3.36
2023-01-23T19:17:05.793Z,3.33
2023-01-23T19:19:42.729Z,3.35
2023-01-23T19:22:13.579Z,3.34
2023-01-23T19:24:43.585Z,3.32
2023-01-23T19:27:22.965Z,3.37
2023-01-23T19:29:52.658Z,3.34
2023-01-23T19:32:22.546Z,3.34
2023-01-23T19:34:56.393Z,3.38
2023-01-23T19:37:25.751Z,3.40
2023-01-23T19:39:55.051Z,3.41
2023-01-23T19:42:24.049Z,3.39
2023-01-23T19:44:54.399Z,3.37
2023-01-23T19:47:23.372Z,3.40
2023-01-23T19:49:54.027Z,3.44
2023-01-23T19:52:23.605Z,3.36
2023-01-23T19:54:52.853Z,3.43
2023-01-23T19:57:22.060Z,3.43
2023-01-23T19:59:51.344Z,3.42
2023-01-23T20:02:25.361Z,3.45
2023-01-23T20:04:57.833Z,3.43
2023-01-23T20:07:27.157Z,3.39
2023-01-23T20:09:56.501Z,3.40
2023-01-23T20:12:25.533Z,3.35
2023-01-23T20:14:57.401Z,3.32
2023-01-23T20:17:26.497Z,3.30
2023-01-23T20:19:57.116Z,3.18
2023-01-23T20:22:26.084Z,3.21
2023-01-23T20:24:55.335Z,3.22
2023-01-23T20:27:24.324Z,3.24
2023-01-23T20:29:53.974Z,3.20
2023-01-23T20:32:23.063Z,3.24
2023-01-23T20:34:56.814Z,3.20
2023-01-23T20:37:26.207Z,3.12
2023-01-23T20:39:55.495Z,3.10
2023-01-23T20:42:24.546Z,3.09
2023-01-23T20:44:53.829Z,3.20
2023-01-23T20:47:22.855Z,3.23
2023-01-23T20:49:52.333Z,3.17
2023-01-23T20:52:39.899Z,3.09
2023-01-23T20:55:10.233Z,3.12
2023-01-23T20:57:56.725Z,3.10
2023-01-23T21:00:26.220Z,3.09
2023-01-23T21:02:55.242Z,2.98
2023-01-23T21:05:24.616Z,3.05
2023-01-23T21:07:55.010Z,3.05
2023-01-23T21:10:24.297Z,2.86
2023-01-23T21:12:53.296Z,2.92
2023-01-23T21:15:23.155Z,2.93
2023-01-23T21:17:52.266Z,3.04
2023-01-23T21:20:21.718Z,3.11
2023-01-23T21:22:50.691Z,2.96
2023-01-23T21:25:21.640Z,2.89
2023-01-23T21:27:50.813Z,3.03
2023-01-23T21:30:20.346Z,3.05
2023-01-23T21:32:50.425Z,3.03
2023-01-23T21:35:20.218Z,2.96
2023-01-23T21:37:49.322Z,2.97
2023-01-23T21:40:20.328Z,2.92
2023-01-23T21:42:49.301Z,2.99
2023-01-23T21:45:18.933Z,2.92
2023-01-23T21:47:48.019Z,2.70
2023-01-23T21:50:18.757Z,2.64
2023-01-23T21:52:47.712Z,2.64
2023-01-23T21:55:17.200Z,2.81
2023-01-23T21:57:47.569Z,2.75
2023-01-23T22:00:34.955Z,2.76
2023-01-23T22:03:03.974Z,2.69
2023-01-23T22:05:35.652Z,2.79
2023-01-23T22:08:05.733Z,2.84
2023-01-23T22:10:35.128Z,2.89
2023-01-23T22:13:05.474Z,2.93
2023-01-23T22:15:34.725Z,2.96
2023-01-23T22:18:03.764Z,3.00
2023-01-23T22:20:33.007Z,3.05
2023-01-23T22:23:01.978Z,2.99
2023-01-23T22:25:31.496Z,3.02
2023-01-23T22:28:00.540Z,2.88
2023-01-23T22:30:31.201Z,2.93
2023-01-23T22:33:00.184Z,2.88
2023-01-23T22:35:29.545Z,2.93
2023-01-23T22:37:58.514Z,2.98
2023-01-23T22:40:27.933Z,3.03
2023-01-23T22:42:56.878Z,3.03
2023-01-23T22:45:26.126Z,3.03
2023-01-23T22:47:56.484Z,3.01
2023-01-23T22:50:27.421Z,2.99
2023-01-23T22:52:56.417Z,3.08
2023-01-23T22:55:25.752Z,3.09
2023-01-23T22:57:54.770Z,2.98
2023-01-23T23:00:24.280Z,2.85
2023-01-23T23:02:53.327Z,2.93
2023-01-23T23:05:23.996Z,2.98
2023-01-23T23:07:52.971Z,2.98
2023-01-23T23:10:22.464Z,3.05
2023-01-23T23:12:51.442Z,3.06
2023-01-23T23:15:21.834Z,2.90
2023-01-23T23:17:51.031Z,2.92
2023-01-23T23:20:20.593Z,2.93
2023-01-23T23:22:50.906Z,3.03
2023-01-23T23:25:20.457Z,3.07
2023-01-23T23:27:49.522Z,3.11
2023-01-23T23:30:19.327Z,3.15
2023-01-23T23:32:48.381Z,3.18
2023-01-23T23:35:17.873Z,3.16
2023-01-23T23:37:46.927Z,3.21
2023-01-23T23:40:18.531Z,3.23
2023-01-23T23:42:47.551Z,3.26
2023-01-23T23:45:16.986Z,3.25
2023-01-23T23:47:46.001Z,3.27
2023-01-23T23:50:15.327Z,3.29
2023-01-23T23:52:44.271Z,3.32
2023-01-23T23:55:13.660Z,3.26
2023-01-23T23:57:43.991Z,3.27
